^^
Grace C. Lehan Memorial Weather Station Historical Data
Daily Summary for September 1, 2021 Units:  Metric    English   Both
Daily Weekly Monthly Yearly
  High: Low: Average:
Temperature: 16.9 °C 5.4 °C 10.8 °C
Dew Point: 4.4 °C -5 °C 0.8 °C
Humidity: 76.2% 24.2% 52%
Wind Speed: 20.9km/h 0km/h 6.4km/h
Wind Gust: 51.5km/h - -
Wind- - NW
Pressure: 1010 hPa 1000.2 hPa -
Precipitation: 0.25 mm    
 
 
Tabular Data for September 1, 2021
Time Temperature Dew Point Pressure Wind Wind Speed Wind Gust Humidity Rainfall Rate (Hourly) solar
00:00 8.7 °C 1.4 °C 1000.2 hPa North 19.3 km/h 45.1 km/h 60% 0 mm 0 W/m2
00:09 8.5 °C 1.7 °C 1000.6 hPa NW 13.7 km/h 33.8 km/h 62.3% 0 mm 0 W/m2
00:14 8.3 °C 2.2 °C 1000.6 hPa WNW 6.3 km/h 33.8 km/h 65.1% 0 mm 0 W/m2
00:19 8.1 °C 2.4 °C 1000.6 hPa WNW 11.6 km/h 33.8 km/h 67.1% 0 mm 0 W/m2
00:24 7.9 °C 2.7 °C 1000.9 hPa WNW 5.8 km/h 33.8 km/h 69.6% 0 mm 0 W/m2
00:29 7.7 °C 3.1 °C 1000.9 hPa NW 8 km/h 33.8 km/h 72.4% 0.25 mm 0 W/m2
00:34 7.4 °C 3.3 °C 1000.9 hPa WNW 8.7 km/h 33.8 km/h 74.8% 0.25 mm 0 W/m2
00:39 7.2 °C 3.2 °C 1000.9 hPa WNW 7.7 km/h 25.7 km/h 75.7% 0.25 mm 0 W/m2
00:44 6.9 °C 3.1 °C 1000.9 hPa WNW 9.8 km/h 25.7 km/h 76.2% 0.25 mm 0 W/m2
00:49 6.7 °C 2.6 °C 1000.9 hPa WNW 16.6 km/h 49.9 km/h 74.6% 0.25 mm 0 W/m2
00:54 6.7 °C 2.2 °C 1001.2 hPa WNW 14.8 km/h 49.9 km/h 73.2% 0.25 mm 0 W/m2
00:59 6.6 °C 1.8 °C 1001.2 hPa WNW 17.9 km/h 49.9 km/h 71.4% 0.25 mm 0 W/m2
01:04 6.6 °C 1.6 °C 1001.2 hPa WNW 18 km/h 49.9 km/h 70.2% 0.25 mm 0 W/m2
01:09 6.6 °C 1.4 °C 1001.2 hPa WNW 13.4 km/h 38.6 km/h 69.8% 0 mm 0 W/m2
01:14 6.6 °C 1.2 °C 1001.2 hPa WNW 17.9 km/h 38.6 km/h 68.8% 0 mm 0 W/m2
01:19 6.6 °C 1.1 °C 1001.2 hPa WNW 13.4 km/h 38.6 km/h 68.1% 0 mm 0 W/m2
01:24 6.6 °C 1.1 °C 1001.2 hPa NW 15.1 km/h 38.6 km/h 68% 0 mm 0 W/m2
01:29 6.6 °C 0.9 °C 1001.2 hPa WNW 15.9 km/h 48.3 km/h 67.1% 0 mm 0 W/m2
01:34 6.5 °C 0.7 °C 1001.2 hPa WNW 20.8 km/h 51.5 km/h 66.5% 0 mm 0 W/m2
01:39 6.5 °C 0.7 °C 1001.2 hPa WNW 10.9 km/h 51.5 km/h 66.2% 0 mm 0 W/m2
01:44 6.4 °C 0.7 °C 1001.6 hPa NW 11.4 km/h 51.5 km/h 66.5% 0 mm 0 W/m2
01:49 6.4 °C 0.6 °C 1001.6 hPa NW 18.7 km/h 51.5 km/h 66% 0 mm 0 W/m2
01:54 6.4 °C 0.3 °C 1001.6 hPa NW 20 km/h 51.5 km/h 65.1% 0 mm 0 W/m2
01:59 6.4 °C 0.3 °C 1001.6 hPa WNW 20.8 km/h 51.5 km/h 65% 0 mm 0 W/m2
02:04 6.3 °C 0.3 °C 1001.6 hPa NW 15.8 km/h 51.5 km/h 65% 0 mm 0 W/m2
02:09 6.3 °C 0.2 °C 1001.6 hPa WNW 15.1 km/h 38.6 km/h 65% 0 mm 0 W/m2
02:14 6.3 °C 0.2 °C 1001.6 hPa NW 16.1 km/h 40.2 km/h 65% 0 mm 0 W/m2
02:19 6.3 °C 0.2 °C 1001.6 hPa WNW 11.9 km/h 40.2 km/h 65% 0 mm 0 W/m2
02:24 6.2 °C 0.3 °C 1001.6 hPa WNW 12.9 km/h 40.2 km/h 65.7% 0 mm 0 W/m2
02:29 6.2 °C 0.3 °C 1001.9 hPa WNW 9.7 km/h 40.2 km/h 66% 0 mm 0 W/m2
02:34 6.2 °C 0.3 °C 1001.9 hPa NW 8.7 km/h 40.2 km/h 66% 0 mm 0 W/m2
02:39 6.1 °C 0.3 °C 1001.9 hPa NW 6.3 km/h 24.1 km/h 66% 0 mm 0 W/m2
02:44 6.1 °C 0.4 °C 1001.9 hPa NW 10.3 km/h 24.1 km/h 66.7% 0 mm 0 W/m2
02:49 6.1 °C 0.3 °C 1001.9 hPa NW 15 km/h 30.6 km/h 66.8% 0 mm 0 W/m2
02:54 6 °C 0.3 °C 1001.9 hPa WNW 12.7 km/h 35.4 km/h 67% 0 mm 0 W/m2
02:59 5.9 °C 0.4 °C 1001.9 hPa NW 8 km/h 35.4 km/h 67.5% 0 mm 0 W/m2
03:04 5.9 °C 0.4 °C 1001.9 hPa NW 9.3 km/h 35.4 km/h 68% 0 mm 0 W/m2
03:09 5.9 °C 0.4 °C 1002.3 hPa NW 10.9 km/h 20.9 km/h 68% 0 mm 0 W/m2
03:14 5.8 °C 0.4 °C 1002.3 hPa WNW 8.9 km/h 24.1 km/h 68% 0 mm 0 W/m2
03:19 5.8 °C 0.4 °C 1002.6 hPa NW 9 km/h 24.1 km/h 68.4% 0 mm 0 W/m2
03:24 5.8 °C 0.6 °C 1002.6 hPa NW 7.2 km/h 24.1 km/h 69% 0 mm 0 W/m2
03:29 5.8 °C 0.6 °C 1002.6 hPa NW 6.4 km/h 24.1 km/h 69% 0 mm 0 W/m2
03:34 5.8 °C 0.6 °C 1002.6 hPa NW 12.7 km/h 27.4 km/h 69% 0 mm 0 W/m2
03:39 5.8 °C 0.6 °C 1002.6 hPa NW 8.5 km/h 27.4 km/h 69% 0 mm 0 W/m2
03:44 5.8 °C 0.6 °C 1002.9 hPa NW 11.7 km/h 27.4 km/h 69% 0 mm 0 W/m2
03:49 5.8 °C 0.5 °C 1002.9 hPa NNW 11.9 km/h 27.4 km/h 68.8% 0 mm 0 W/m2
03:54 5.8 °C 0.4 °C 1002.9 hPa NW 11.3 km/h 27.4 km/h 68.6% 0 mm 0 W/m2
03:59 5.8 °C 0.3 °C 1003.3 hPa NW 8.7 km/h 27.4 km/h 68% 0 mm 0 W/m2
04:09 5.8 °C 0.3 °C 1003.3 hPa WNW 6.4 km/h 16.1 km/h 68% 0 mm 0 W/m2
04:14 5.7 °C 0.4 °C 1003.6 hPa WNW 3.5 km/h 16.1 km/h 68.8% 0 mm 0 W/m2
04:19 5.7 °C 0.3 °C 1003.6 hPa NW 8.5 km/h 24.1 km/h 68% 0 mm 0 W/m2
04:24 5.7 °C 0.2 °C 1003.6 hPa NW 8.5 km/h 24.1 km/h 68% 0 mm 0 W/m2
04:29 5.7 °C 0.2 °C 1003.6 hPa NW 8.4 km/h 24.1 km/h 68% 0 mm 0 W/m2
04:34 5.7 °C 0.2 °C 1003.9 hPa NW 6.6 km/h 24.1 km/h 68% 0 mm 0 W/m2
04:39 5.7 °C 0.2 °C 1003.9 hPa NW 6.9 km/h 19.3 km/h 68% 0 mm 0 W/m2
04:44 5.7 °C 0.2 °C 1003.9 hPa NW 5.5 km/h 19.3 km/h 68% 0 mm 0 W/m2
04:49 5.6 °C 0.2 °C 1003.9 hPa NW 7.9 km/h 24.1 km/h 68% 0 mm 0 W/m2
04:54 5.6 °C 0.2 °C 1004.3 hPa WNW 9.3 km/h 24.1 km/h 68% 0 mm 0 W/m2
04:59 5.6 °C 0.1 °C 1004.3 hPa NW 7.4 km/h 24.1 km/h 68% 0 mm 0 W/m2
05:04 5.6 °C 0.1 °C 1004.3 hPa NW 10.5 km/h 32.2 km/h 68% 0 mm 0 W/m2
05:09 5.6 °C 0.1 °C 1004.6 hPa NW 11.4 km/h 32.2 km/h 68% 0 mm 0 W/m2
05:14 5.6 °C 0.1 °C 1004.6 hPa NW 10.8 km/h 32.2 km/h 68% 0 mm 0 W/m2
05:19 5.6 °C 0.1 °C 1005 hPa WNW 9.2 km/h 32.2 km/h 68% 0 mm 0 W/m2
05:24 5.5 °C 0.1 °C 1005 hPa NW 6.9 km/h 32.2 km/h 68% 0 mm 0 W/m2
05:29 5.5 °C 0.1 °C 1005.3 hPa NW 6 km/h 32.2 km/h 68% 0 mm 0 W/m2
05:34 5.4 °C 0 °C 1005.3 hPa NW 3.9 km/h 32.2 km/h 68% 0 mm 0 W/m2
05:39 5.4 °C 0.1 °C 1005.6 hPa NW 5.1 km/h 22.5 km/h 68.6% 0 mm 0 W/m2
05:44 5.4 °C 0.2 °C 1005.6 hPa NW 4.5 km/h 22.5 km/h 68.6% 0 mm 0 W/m2
05:49 5.5 °C 0.1 °C 1005.6 hPa NW 3.5 km/h 22.5 km/h 68.3% 0 mm 0 W/m2
05:54 5.5 °C 0.2 °C 1006 hPa NW 12.4 km/h 35.4 km/h 68.7% 0 mm 5 W/m2
05:59 5.6 °C 0.1 °C 1006 hPa NW 8 km/h 35.4 km/h 68% 0 mm 7 W/m2
06:04 5.6 °C 0.2 °C 1006 hPa NNW 4.7 km/h 35.4 km/h 68% 0 mm 11 W/m2
06:09 5.6 °C 0.2 °C 1006 hPa NW 6.8 km/h 24.1 km/h 68% 0 mm 14 W/m2
06:14 5.6 °C 0.2 °C 1006.3 hPa NW 2.1 km/h 24.1 km/h 68% 0 mm 25 W/m2
06:19 5.6 °C 0.2 °C 1006.3 hPa NW 3.4 km/h 24.1 km/h 68% 0 mm 37 W/m2
06:24 5.6 °C 0.2 °C 1006.3 hPa NW 4.3 km/h 24.1 km/h 68.2% 0 mm 49 W/m2
06:29 5.7 °C 0.2 °C 1006.7 hPa NW 3.2 km/h 24.1 km/h 68% 0 mm 54 W/m2
06:34 5.7 °C 0.4 °C 1006.7 hPa NW 2.1 km/h 24.1 km/h 68.6% 0 mm 83 W/m2
06:39 5.8 °C 0.4 °C 1007 hPa NW 6 km/h 27.4 km/h 68.2% 0 mm 104 W/m2
06:44 5.9 °C 0.4 °C 1007 hPa NW 6.9 km/h 30.6 km/h 68% 0 mm 148 W/m2
06:49 6.1 °C 0.6 °C 1007 hPa NNW 5.5 km/h 30.6 km/h 67.6% 0 mm 213 W/m2
06:54 6.4 °C 0.7 °C 1007.3 hPa NNW 2.9 km/h 30.6 km/h 67.2% 0 mm 276 W/m2
06:59 6.8 °C 1.1 °C 1007.3 hPa NW 1.6 km/h 30.6 km/h 66.8% 0 mm 301 W/m2
07:04 7.3 °C 1.4 °C 1007.3 hPa North 0.6 km/h 30.6 km/h 65.9% 0 mm 287 W/m2
07:09 7.8 °C 1.4 °C 1007.3 hPa WNW 2.9 km/h 14.5 km/h 64.1% 0 mm 264 W/m2
07:14 8.2 °C 1.4 °C 1007.3 hPa NW 3.1 km/h 19.3 km/h 62.5% 0 mm 313 W/m2
07:19 8.5 °C 1.6 °C 1007.7 hPa NW 5 km/h 20.9 km/h 61.7% 0 mm 334 W/m2
07:24 8.8 °C 1.6 °C 1007.7 hPa NW 2.1 km/h 20.9 km/h 60.8% 0 mm 327 W/m2
07:29 9 °C 1.9 °C 1007.7 hPa NNW 0.8 km/h 20.9 km/h 61.2% 0 mm 359 W/m2
07:34 9.1 °C 1.7 °C 1007.7 hPa WNW 6.4 km/h 22.5 km/h 60% 0 mm 415 W/m2
07:39 9.1 °C 1.7 °C 1007.7 hPa West 0.8 km/h 22.5 km/h 59.8% 0 mm 425 W/m2
07:44 9 °C 1.6 °C 1007.7 hPa WNW 0.8 km/h 22.5 km/h 59.4% 0 mm 116 W/m2
07:49 8.7 °C 1.3 °C 1008 hPa NW 6.8 km/h 22.5 km/h 59.5% 0 mm 70 W/m2
07:54 8.3 °C 1.1 °C 1008 hPa NNW 2.9 km/h 22.5 km/h 60.4% 0 mm 83 W/m2
07:59 8 °C 1.3 °C 1008.4 hPa NNW 1.6 km/h 22.5 km/h 62.7% 0 mm 83 W/m2
08:00 7.9 °C 1.3 °C 1008 hPa WNW 12.9 km/h 22.5 km/h 63% 0 mm 54 W/m2
08:09 7.9 °C 1.5 °C 1008 hPa WNW 3.2 km/h 14.5 km/h 63.7% 0 mm 461 W/m2
08:14 8.3 °C 1.9 °C 1008 hPa NW 1.9 km/h 14.5 km/h 64% 0 mm 483 W/m2
08:19 8.8 °C 1.9 °C 1008 hPa NW 7.2 km/h 20.9 km/h 62% 0 mm 483 W/m2
08:24 9.2 °C 2 °C 1008 hPa WNW 7.1 km/h 22.5 km/h 60.7% 0 mm 515 W/m2
08:29 9.6 °C 2.4 °C 1008.4 hPa NW 7.9 km/h 29 km/h 61% 0 mm 529 W/m2
08:34 9.9 °C 2.3 °C 1008 hPa NW 4.2 km/h 29 km/h 59.2% 0 mm 527 W/m2
08:39 10.2 °C 2.5 °C 1008.4 hPa NW 5.6 km/h 25.7 km/h 58.8% 0 mm 541 W/m2
08:44 10.5 °C 2.8 °C 1008.4 hPa NW 5 km/h 25.7 km/h 58.9% 0 mm 557 W/m2
08:49 10.8 °C 2.8 °C 1008.4 hPa WNW 8.4 km/h 25.7 km/h 57.5% 0 mm 575 W/m2
08:54 10.7 °C 2.2 °C 1008.4 hPa NW 13.4 km/h 32.2 km/h 55.6% 0 mm 592 W/m2
08:59 10.5 °C 2.4 °C 1008.7 hPa NW 8.7 km/h 32.2 km/h 57.2% 0 mm 605 W/m2
09:04 10.5 °C 2.5 °C 1008.7 hPa WNW 12.4 km/h 32.2 km/h 57.5% 0 mm 622 W/m2
09:09 10.4 °C 2.4 °C 1008.7 hPa NW 9.5 km/h 29 km/h 57.7% 0 mm 642 W/m2
09:14 10.5 °C 2.4 °C 1008.7 hPa WNW 13 km/h 30.6 km/h 57.3% 0 mm 668 W/m2
09:19 10.6 °C 2.9 °C 1008.7 hPa NW 9.7 km/h 30.6 km/h 59.2% 0 mm 679 W/m2
09:24 10.8 °C 2.8 °C 1008.7 hPa NW 7.9 km/h 30.6 km/h 57.6% 0 mm 686 W/m2
09:29 10.9 °C 3.1 °C 1008.7 hPa NW 3.7 km/h 30.6 km/h 58.1% 0 mm 712 W/m2
09:34 11.2 °C 3.3 °C 1008.7 hPa WNW 7.4 km/h 30.6 km/h 58.1% 0 mm 773 W/m2
09:39 11.4 °C 3.2 °C 1009 hPa WNW 5.6 km/h 27.4 km/h 57.1% 0 mm 773 W/m2
09:44 11.3 °C 2.8 °C 1009 hPa WNW 9.7 km/h 27.4 km/h 56% 0 mm 828 W/m2
09:49 11.1 °C 2.8 °C 1009 hPa WNW 7.6 km/h 27.4 km/h 56.6% 0 mm 798 W/m2
09:54 11.1 °C 3.2 °C 1009.4 hPa NW 10.8 km/h 30.6 km/h 58.1% 0 mm 798 W/m2
09:59 11.3 °C 3.4 °C 1009.4 hPa NW 8.7 km/h 30.6 km/h 57.9% 0 mm 784 W/m2
10:04 11.7 °C 3.4 °C 1009.4 hPa NW 10.1 km/h 30.6 km/h 56.8% 0 mm 789 W/m2
10:09 11.7 °C 2.9 °C 1009.4 hPa NW 13.7 km/h 30.6 km/h 55.2% 0 mm 796 W/m2
10:14 11.5 °C 3.2 °C 1009.4 hPa NW 10.3 km/h 30.6 km/h 56.4% 0 mm 814 W/m2
10:19 11.6 °C 3.4 °C 1009.4 hPa WNW 4.5 km/h 30.6 km/h 57.1% 0 mm 823 W/m2
10:24 11.8 °C 3.2 °C 1009.4 hPa WNW 11.6 km/h 30.6 km/h 55.8% 0 mm 831 W/m2
10:29 11.7 °C 3.3 °C 1009.4 hPa NW 10.3 km/h 30.6 km/h 56.2% 0 mm 842 W/m2
10:34 11.8 °C 3.2 °C 1009.4 hPa WNW 11.7 km/h 30.6 km/h 55.4% 0 mm 854 W/m2
10:39 11.8 °C 3.3 °C 1009.4 hPa WNW 7.6 km/h 27.4 km/h 56% 0 mm 860 W/m2
10:44 11.9 °C 3.2 °C 1009.7 hPa WNW 12.6 km/h 27.4 km/h 55.2% 0 mm 868 W/m2
10:49 11.8 °C 3 °C 1009.7 hPa WNW 11.9 km/h 27.4 km/h 54.6% 0 mm 877 W/m2
10:54 11.9 °C 3.5 °C 1009.7 hPa NW 6.3 km/h 27.4 km/h 56.2% 0 mm 888 W/m2
10:59 12.3 °C 3.3 °C 1009.7 hPa NW 14.6 km/h 30.6 km/h 54.3% 0 mm 896 W/m2
11:04 12.2 °C 3.1 °C 1009.7 hPa WNW 11.3 km/h 30.6 km/h 53.6% 0 mm 904 W/m2
11:08 12.1 °C 3.5 °C 1009.7 hPa NW 8.7 km/h 27.4 km/h 55.5% 0 mm 911 W/m2
11:30 12.3 °C 3.1 °C 1009.7 hPa NW 9.7 km/h 30.6 km/h 53% 0 mm 920 W/m2
12:04 12.9 °C 3.1 °C 1010 hPa NW 10.6 km/h 30.6 km/h 51.5% 0 mm 974 W/m2
12:09 12.9 °C 3.5 °C 1010 hPa WNW 4.2 km/h 19.3 km/h 52.6% 0 mm 976 W/m2
12:14 13.1 °C 4.3 °C 1010 hPa WNW 6.9 km/h 25.7 km/h 55.1% 0 mm 979 W/m2
12:19 13.2 °C 3.6 °C 1010 hPa West 5.1 km/h 25.7 km/h 52.4% 0 mm 986 W/m2
12:24 13.1 °C 3.3 °C 1010 hPa WNW 10.8 km/h 27.4 km/h 51.5% 0 mm 986 W/m2
12:29 12.8 °C 3.4 °C 1010 hPa NW 8.2 km/h 27.4 km/h 52.8% 0 mm 990 W/m2
12:34 12.8 °C 3.6 °C 1010 hPa NW 8.9 km/h 30.6 km/h 53.6% 0 mm 993 W/m2
12:39 12.9 °C 3.7 °C 1010 hPa NW 5.8 km/h 30.6 km/h 53.6% 0 mm 995 W/m2
12:44 13.2 °C 3.7 °C 1010 hPa WNW 7.7 km/h 30.6 km/h 52.7% 0 mm 997 W/m2
12:49 13.2 °C 3.8 °C 1010 hPa NW 7.4 km/h 30.6 km/h 52.7% 0 mm 997 W/m2
12:54 13.3 °C 3.7 °C 1010 hPa NW 4.5 km/h 30.6 km/h 52.2% 0 mm 1000 W/m2
12:59 13.6 °C 4.4 °C 1010 hPa NW 7.9 km/h 30.6 km/h 53.7% 0 mm 1002 W/m2
13:04 13.9 °C 3.9 °C 1010 hPa NW 12.2 km/h 30.6 km/h 50.9% 0 mm 1004 W/m2
13:09 13.8 °C 3.8 °C 1010 hPa NW 10.9 km/h 30.6 km/h 50.7% 0 mm 1004 W/m2
13:14 13.8 °C 3.8 °C 1010 hPa NW 7.1 km/h 30.6 km/h 50.7% 0 mm 1000 W/m2
13:19 13.9 °C 3.9 °C 1010 hPa WNW 9.5 km/h 30.6 km/h 51.1% 0 mm 1000 W/m2
13:24 14 °C 3.9 °C 1010 hPa NW 8.7 km/h 30.6 km/h 50.6% 0 mm 1002 W/m2
13:29 14.1 °C 3.8 °C 1010 hPa WNW 10.9 km/h 35.4 km/h 49.6% 0 mm 1002 W/m2
13:34 14.2 °C 3.7 °C 1010 hPa WNW 9.3 km/h 35.4 km/h 49.5% 0 mm 997 W/m2
13:39 14.2 °C 3.9 °C 1010 hPa NW 12.2 km/h 29 km/h 49.8% 0 mm 993 W/m2
13:44 14.2 °C 3.7 °C 1010 hPa NW 10.1 km/h 29 km/h 49.1% 0 mm 988 W/m2
13:49 14.3 °C 4.1 °C 1010 hPa NW 9.3 km/h 30.6 km/h 50% 0 mm 986 W/m2
13:54 14.4 °C 3.8 °C 1010 hPa WNW 6.3 km/h 30.6 km/h 48.8% 0 mm 981 W/m2
13:59 14.6 °C 4.3 °C 1010 hPa WNW 11.7 km/h 30.6 km/h 49.9% 0 mm 976 W/m2
14:04 14.8 °C 3.9 °C 1010 hPa NW 11.6 km/h 30.6 km/h 48% 0 mm 970 W/m2
14:09 14.8 °C 3.9 °C 1010 hPa NW 9.5 km/h 27.4 km/h 47.8% 0 mm 963 W/m2
14:14 14.9 °C 4.1 °C 1010 hPa NW 9.7 km/h 27.4 km/h 48.2% 0 mm 960 W/m2
14:19 15.1 °C 3.7 °C 1009.7 hPa WNW 8.9 km/h 27.4 km/h 46.5% 0 mm 958 W/m2
14:24 15.1 °C 3.9 °C 1009.7 hPa NW 6.8 km/h 27.4 km/h 47.3% 0 mm 951 W/m2
14:29 15.2 °C 3.7 °C 1010 hPa NW 16.3 km/h 32.2 km/h 46.3% 0 mm 942 W/m2
14:34 15 °C 3.4 °C 1010 hPa NW 13.4 km/h 32.2 km/h 45.8% 0 mm 935 W/m2
14:39 15.1 °C 3.9 °C 1010 hPa NW 7.7 km/h 29 km/h 47% 0 mm 928 W/m2
14:44 15.3 °C 3.3 °C 1010 hPa NW 10.9 km/h 29 km/h 44.6% 0 mm 918 W/m2
14:49 15.4 °C 3.2 °C 1010 hPa NW 14.5 km/h 30.6 km/h 44% 0 mm 912 W/m2
14:54 15.4 °C 2.8 °C 1010 hPa WNW 10.5 km/h 32.2 km/h 42.9% 0 mm 907 W/m2
14:59 15.4 °C 2.7 °C 1010 hPa WNW 9.5 km/h 33.8 km/h 42.2% 0 mm 896 W/m2
15:04 15.6 °C 1.9 °C 1010 hPa WNW 12.1 km/h 33.8 km/h 39.6% 0 mm 888 W/m2
15:09 15.7 °C 1.8 °C 1010 hPa NW 8.5 km/h 30.6 km/h 39% 0 mm 874 W/m2
15:14 15.9 °C 1.8 °C 1010 hPa NW 6.4 km/h 30.6 km/h 38.8% 0 mm 858 W/m2
15:19 16.1 °C 1.9 °C 1010 hPa NNW 7.4 km/h 30.6 km/h 38.5% 0 mm 847 W/m2
15:24 16.3 °C 2.3 °C 1009.7 hPa NW 6.8 km/h 30.6 km/h 39% 0 mm 837 W/m2
15:29 16.5 °C 1.7 °C 1010 hPa NW 5 km/h 30.6 km/h 37% 0 mm 826 W/m2
15:34 16.6 °C 1.6 °C 1009.7 hPa NNW 2.6 km/h 30.6 km/h 36.2% 0 mm 812 W/m2
15:39 16.7 °C 2.1 °C 1009.7 hPa NW 3.7 km/h 11.3 km/h 37.2% 0 mm 802 W/m2
15:44 16.8 °C 2.2 °C 1009.7 hPa WNW 5.1 km/h 16.1 km/h 37.3% 0 mm 780 W/m2
15:49 16.9 °C 1.2 °C 1009.7 hPa WNW 7.4 km/h 17.7 km/h 34.8% 0 mm 777 W/m2
15:54 16.8 °C 0.5 °C 1009.7 hPa WNW 9.5 km/h 27.4 km/h 33% 0 mm 763 W/m2
15:59 16.8 °C 0.6 °C 1009.7 hPa WNW 10.6 km/h 27.4 km/h 33.2% 0 mm 749 W/m2
16:04 16.6 °C 0.7 °C 1009.7 hPa West 20.9 km/h 20.9 km/h 34% 0 mm 51 W/m2
16:09 16.5 °C 0.4 °C 1009.7 hPa WNW 9.8 km/h 20.9 km/h 33.5% 0 mm 51 W/m2
16:14 16.4 °C 0.7 °C 1009.7 hPa WNW 5.1 km/h 20.9 km/h 34.3% 0 mm 49 W/m2
16:19 16.3 °C 1 °C 1009.7 hPa WNW 2.3 km/h 20.9 km/h 35.3% 0 mm 49 W/m2
16:24 16.3 °C 0.8 °C 1009.7 hPa West 4.3 km/h 20.9 km/h 34.9% 0 mm 47 W/m2
16:29 16.3 °C 0.4 °C 1009.7 hPa WNW 2.1 km/h 20.9 km/h 34% 0 mm 46 W/m2
16:34 16.3 °C 0.2 °C 1009.4 hPa NW 5.3 km/h 22.5 km/h 33.4% 0 mm 46 W/m2
16:39 16.2 °C -1.8 °C 1009.4 hPa NW 9.8 km/h 22.5 km/h 29% 0 mm 44 W/m2
16:44 16.2 °C -1.8 °C 1009.4 hPa WNW 3.4 km/h 22.5 km/h 29.1% 0 mm 44 W/m2
16:49 16.3 °C -2.1 °C 1009.4 hPa NW 7.2 km/h 24.1 km/h 28.3% 0 mm 44 W/m2
16:54 16.3 °C -2.3 °C 1009.4 hPa NW 6 km/h 24.1 km/h 27.9% 0 mm 46 W/m2
16:59 16.2 °C -2.3 °C 1009.4 hPa NNW 3.9 km/h 24.1 km/h 28% 0 mm 44 W/m2
17:04 16.2 °C -1.3 °C 1009.4 hPa NW 2.7 km/h 24.1 km/h 30.4% 0 mm 44 W/m2
17:09 16.2 °C -1.2 °C 1009.4 hPa WNW 4.5 km/h 17.7 km/h 30.5% 0 mm 70 W/m2
17:14 16.3 °C -1.8 °C 1009.4 hPa NW 8.7 km/h 24.1 km/h 28.9% 0 mm 72 W/m2
17:19 16.3 °C -2.5 °C 1009.4 hPa WNW 7.9 km/h 24.1 km/h 27.5% 0 mm 74 W/m2
17:24 16.3 °C -2.3 °C 1009.7 hPa WNW 6.1 km/h 24.1 km/h 28% 0 mm 72 W/m2
17:29 16.3 °C -2.3 °C 1009.4 hPa WNW 5.6 km/h 24.1 km/h 27.9% 0 mm 76 W/m2
17:34 16.2 °C -2.3 °C 1009.7 hPa WNW 1.6 km/h 24.1 km/h 27.9% 0 mm 81 W/m2
17:39 16.2 °C -2.3 °C 1009.4 hPa WNW 3.1 km/h 16.1 km/h 28% 0 mm 76 W/m2
17:44 16.1 °C -2.7 °C 1009.4 hPa NW 5.3 km/h 17.7 km/h 27.4% 0 mm 65 W/m2
17:49 16 °C -3.3 °C 1009.4 hPa WNW 3.7 km/h 19.3 km/h 26.3% 0 mm 65 W/m2
17:54 16 °C -3 °C 1009.4 hPa West 6.3 km/h 22.5 km/h 27% 0 mm 47 W/m2
17:59 16 °C -3 °C 1009.4 hPa WNW 1.1 km/h 22.5 km/h 27% 0 mm 44 W/m2
18:04 16 °C -2.7 °C 1009.4 hPa WNW 2.3 km/h 22.5 km/h 27.7% 0 mm 40 W/m2
18:09 15.9 °C -3.8 °C 1009.4 hPa WNW 7.6 km/h 22.5 km/h 25.7% 0 mm 53 W/m2
18:14 15.6 °C -4.8 °C 1009.4 hPa WNW 7.4 km/h 22.5 km/h 24.2% 0 mm 53 W/m2
18:19 15.4 °C -5 °C 1009.4 hPa NNW 5.3 km/h 22.5 km/h 24.2% 0 mm 42 W/m2
18:24 15.2 °C -4.8 °C 1009.4 hPa NW 2.1 km/h 22.5 km/h 24.7% 0 mm 47 W/m2
18:29 15.1 °C -4.6 °C 1009.4 hPa NW 0.6 km/h 22.5 km/h 25.5% 0 mm 62 W/m2
18:34 14.9 °C -4.3 °C 1009.4 hPa NW 0.3 km/h 22.5 km/h 26.2% 0 mm 69 W/m2
18:39 14.8 °C -3.8 °C 1009 hPa North 1 km/h 4.8 km/h 27.4% 0 mm 70 W/m2
18:44 14.8 °C -3.8 °C 1009.4 hPa North 1 km/h 6.4 km/h 27.4% 0 mm 74 W/m2
18:49 14.8 °C -3.7 °C 1009.4 hPa North 0.6 km/h 6.4 km/h 27.7% 0 mm 65 W/m2
18:54 14.8 °C -3.3 °C 1009.4 hPa North 0.6 km/h 6.4 km/h 28.5% 0 mm 56 W/m2
18:59 14.8 °C -3.4 °C 1009 hPa North 0.5 km/h 6.4 km/h 28% 0 mm 51 W/m2
19:04 14.9 °C -3.7 °C 1009 hPa Calm   6.4 km/h 27.5% 0 mm 37 W/m2
19:09 14.9 °C -3 °C 1009.4 hPa NNW 0.5 km/h 4.8 km/h 28.8% 0 mm 30 W/m2
19:14 14.9 °C -3.2 °C 1009.4 hPa NNW 0.5 km/h 4.8 km/h 28.6% 0 mm 21 W/m2
19:19 14.9 °C -3.1 °C 1009.4 hPa Calm   4.8 km/h 28.7% 0 mm 19 W/m2
19:24 14.8 °C -2.6 °C 1009.4 hPa Calm   4.8 km/h 29.9% 0 mm 18 W/m2
19:29 14.8 °C -2.1 °C 1009.4 hPa NNW 0.2 km/h 4.8 km/h 31.2% 0 mm 14 W/m2
19:34 14.7 °C -2.6 °C 1009.4 hPa Calm   4.8 km/h 30.3% 0 mm 12 W/m2
19:39 14.6 °C -2.2 °C 1009.4 hPa Calm   1.6 km/h 31.3% 0 mm 7 W/m2
19:44 14.5 °C -2 °C 1009.4 hPa Calm   1.6 km/h 32% 0 mm 5 W/m2
19:49 14.3 °C -1.9 °C 1009.4 hPa Calm   1.6 km/h 32.5% 0 mm 0 W/m2
19:54 14.2 °C -1.8 °C 1009 hPa Calm   1.6 km/h 33.1% 0 mm 0 W/m2
19:59 13.9 °C -2.7 °C 1009 hPa Calm   1.6 km/h 31.4% 0 mm 0 W/m2
20:00 13.8 °C -3 °C 1009 hPa Calm   1.6 km/h 31% 0 mm 0 W/m2
20:09 13.6 °C -2.6 °C 1009 hPa Calm     32.5% 0 mm 0 W/m2
20:14 13.4 °C -2.2 °C 1009.4 hPa Calm     34% 0 mm 0 W/m2
20:19 13.2 °C -2.3 °C 1009 hPa Calm     34% 0 mm 0 W/m2
20:24 13 °C -2.7 °C 1009.4 hPa Calm     33.6% 0 mm 0 W/m2
20:29 12.8 °C -2.5 °C 1009.4 hPa Calm     34.4% 0 mm 0 W/m2
20:34 12.6 °C -1.9 °C 1009 hPa Calm     36.4% 0 mm 0 W/m2
20:39 12.4 °C -1.3 °C 1009 hPa Calm     38.7% 0 mm 0 W/m2
20:44 12.2 °C -1.4 °C 1009.4 hPa Calm     38.9% 0 mm 0 W/m2
20:49 11.9 °C -1.6 °C 1009.4 hPa Calm     39% 0 mm 0 W/m2
20:54 11.7 °C -1.4 °C 1009.4 hPa Calm     39.9% 0 mm 0 W/m2
20:59 11.6 °C -1.2 °C 1009.4 hPa Calm     41.1% 0 mm 0 W/m2
21:04 11.4 °C -1.1 °C 1009.4 hPa Calm     41.8% 0 mm 0 W/m2
21:09 11.3 °C -0.9 °C 1009.4 hPa Calm     42.8% 0 mm 0 W/m2
21:14 11.1 °C -0.3 °C 1009.4 hPa Calm     45.1% 0 mm 0 W/m2
21:19 10.9 °C 0.4 °C 1009.4 hPa Calm     48.2% 0 mm 0 W/m2
21:24 10.7 °C 0.4 °C 1009.4 hPa Calm     48.9% 0 mm 0 W/m2
21:29 10.6 °C 0 °C 1009.4 hPa Calm     48.1% 0 mm 0 W/m2
21:34 10.4 °C -0.7 °C 1009.4 hPa Calm     46.1% 0 mm 0 W/m2
21:39 10.3 °C -0.8 °C 1009.4 hPa Calm     46% 0 mm 0 W/m2
21:44 10.3 °C -1 °C 1009.4 hPa Calm     45.5% 0 mm 0 W/m2
21:49 10.2 °C -0.7 °C 1009.4 hPa Calm     46.8% 0 mm 0 W/m2
21:54 10.1 °C -0.3 °C 1009.4 hPa Calm     48.4% 0 mm 0 W/m2
21:59 10 °C -0.4 °C 1009.4 hPa Calm     48.3% 0 mm 0 W/m2
22:04 9.9 °C -0.1 °C 1009.4 hPa Calm     49.5% 0 mm 0 W/m2
22:09 9.9 °C -0.1 °C 1009.4 hPa Calm     50.1% 0 mm 0 W/m2
22:14 9.8 °C -0.1 °C 1009.4 hPa Calm     50.3% 0 mm 0 W/m2
22:19 9.7 °C 0.3 °C 1009.4 hPa Calm     51.8% 0 mm 0 W/m2
22:24 9.6 °C -0.1 °C 1009.4 hPa Calm     50.6% 0 mm 0 W/m2
22:29 9.6 °C 0.2 °C 1009 hPa Calm     52.1% 0 mm 0 W/m2
22:34 9.6 °C 0.3 °C 1009 hPa Calm     52.5% 0 mm 0 W/m2
22:39 9.4 °C 0.9 °C 1009 hPa Calm     55.3% 0 mm 0 W/m2
22:44 9.3 °C 1 °C 1009 hPa Calm     56% 0 mm 0 W/m2
22:49 9.3 °C 1.1 °C 1009 hPa Calm     56.4% 0 mm 0 W/m2
22:54 9.2 °C 1 °C 1009 hPa Calm     56.7% 0 mm 0 W/m2
22:59 9.1 °C 0.7 °C 1009 hPa Calm     55.9% 0 mm 0 W/m2
23:04 9 °C 0.6 °C 1009 hPa Calm     55.6% 0 mm 0 W/m2
23:09 9.1 °C 0.2 °C 1009 hPa Calm     54% 0 mm 0 W/m2
23:14 9.1 °C 0.3 °C 1009 hPa Calm     54.4% 0 mm 0 W/m2
23:19 9.1 °C 1.1 °C 1009 hPa Calm     57.5% 0 mm 0 W/m2
23:24 9 °C 1.6 °C 1008.7 hPa Calm     59.5% 0 mm 0 W/m2
23:29 8.9 °C 1.6 °C 1008.7 hPa Calm     60% 0 mm 0 W/m2
23:34 8.8 °C 1.5 °C 1008.7 hPa Calm     60% 0 mm 0 W/m2
23:39 8.8 °C 1.4 °C 1008.7 hPa Calm     59.6% 0 mm 0 W/m2
23:44 8.9 °C 1.6 °C 1008.7 hPa Calm     59.9% 0 mm 0 W/m2
23:49 9.1 °C 1 °C 1008.7 hPa Calm     57.1% 0 mm 0 W/m2
23:54 9.3 °C 0.7 °C 1008.7 hPa Calm     55.1% 0 mm 0 W/m2
23:59 9.5 °C 0.7 °C 1008.4 hPa Calm     54.1% 0 mm 0 W/m2
Hartford County Weather
Compliments of Weather Underground - 2 mb